Time;durP1;ratioP1;P1;durP2;ratioP2;P2;SDS_P1;SDS_P2;PMS_P1;PMS_P2;Temp;Humidity;BMP_temperature;BMP_pressure;BME280_temperature;BME280_humidity;BME280_pressure;Samples;Min_cycle;Max_cycle;Signal;HPM_P1;HPM_P2
2024/02/16 00:01:30;;;;;;;2.13;1.90;;;;;12.80;100370.00;;;;10414678;28;20222;-85
2024/02/16 00:06:32;;;;;;;5.88;2.22;;;;;13.00;100379.00;;;;10410400;28;20300;-82
2024/02/16 00:11:35;;;;;;;4.20;2.00;;;;;13.00;100372.00;;;;10402654;28;20502;-87
2024/02/16 00:16:36;;;;;;;8.87;2.23;;;;;13.00;100374.00;;;;10416750;28;20213;-86
2024/02/16 00:21:37;;;;;;;6.65;2.47;;;;;12.80;100368.00;;;;10427158;28;20220;-86
2024/02/16 00:26:43;;;;;;;4.63;2.28;;;;;12.70;100358.00;;;;10405854;28;20248;-85
2024/02/16 00:31:44;;;;;;;4.15;2.10;;;;;12.60;100363.00;;;;10409050;28;20271;-85
2024/02/16 00:36:45;;;;;;;4.93;2.60;;;;;12.60;100363.00;;;;10418851;28;20985;-85
2024/02/16 00:41:46;;;;;;;3.88;2.00;;;;;12.50;100370.00;;;;10384964;28;20225;-85
2024/02/16 00:46:47;;;;;;;4.93;2.53;;;;;12.50;100367.00;;;;10415733;28;20218;-85
2024/02/16 00:51:50;;;;;;;7.57;2.40;;;;;12.50;100355.00;;;;10393296;28;20312;-85
2024/02/16 00:56:51;;;;;;;4.38;2.45;;;;;12.50;100368.00;;;;10405724;28;20226;-86
2024/02/16 01:01:52;;;;;;;4.15;2.03;;;;;12.50;100364.00;;;;10399210;28;20252;-87
2024/02/16 01:06:54;;;;;;;3.75;2.17;;;;;12.50;100366.00;;;;10419031;28;20938;-84
2024/02/16 01:11:55;;;;;;;6.05;2.63;;;;;12.50;100356.00;;;;10414820;28;20300;-86
2024/02/16 01:16:56;;;;;;;4.30;2.53;;;;;12.40;100358.00;;;;10406395;28;20256;-85
2024/02/16 01:21:58;;;;;;;3.70;2.53;;;;;12.40;100359.00;;;;10427679;28;20425;-85
2024/02/16 01:27:01;;;;;;;5.90;2.40;;;;;12.30;100357.00;;;;10385441;28;20304;-86
2024/02/16 01:32:03;;;;;;;3.47;2.10;;;;;12.30;100354.00;;;;10398703;28;20319;-83
2024/02/16 01:37:04;;;;;;;6.43;2.60;;;;;12.40;100352.00;;;;10407027;28;20314;-79
2024/02/16 01:42:05;;;;;;;5.80;2.17;;;;;12.50;100353.00;;;;10404246;28;20219;-79
2024/02/16 01:47:06;;;;;;;3.20;2.30;;;;;12.60;100353.00;;;;10419337;28;20248;-78
2024/02/16 01:52:09;;;;;;;2.88;2.10;;;;;12.80;100341.00;;;;10405153;28;20233;-79
2024/02/16 01:57:10;;;;;;;4.82;2.22;;;;;12.90;100336.00;;;;10433681;28;20276;-78
2024/02/16 02:02:12;;;;;;;3.45;2.28;;;;;12.90;100333.00;;;;10420785;28;20359;-78
2024/02/16 02:07:16;;;;;;;3.05;2.30;;;;;13.00;100322.00;;;;10412379;28;20221;-77
2024/02/16 02:12:18;;;;;;;4.25;2.28;;;;;13.00;100320.00;;;;10426834;28;20884;-78
2024/02/16 02:17:19;;;;;;;2.42;2.03;;;;;13.00;100310.00;;;;10439199;28;20228;-80
2024/02/16 02:22:21;;;;;;;5.93;2.60;;;;;13.00;100316.00;;;;10403626;28;20229;-78
2024/02/16 02:27:22;;;;;;;5.68;2.55;;;;;13.00;100314.00;;;;10398277;28;20874;-78
2024/02/16 02:32:23;;;;;;;2.88;2.40;;;;;13.00;100311.00;;;;10377604;28;20225;-80
2024/02/16 02:37:24;;;;;;;4.65;2.55;;;;;13.10;100308.00;;;;10417776;28;20318;-78
2024/02/16 02:42:25;;;;;;;4.35;2.58;;;;;13.10;100312.00;;;;10409792;28;20222;-78
2024/02/16 02:47:27;;;;;;;2.42;2.10;;;;;13.10;100306.00;;;;10396454;28;20219;-78
2024/02/16 02:52:28;;;;;;;4.38;2.40;;;;;13.10;100307.00;;;;10398053;28;20225;-77
2024/02/16 02:57:29;;;;;;;4.75;2.95;;;;;13.20;100307.00;;;;10394339;28;20316;-79
2024/02/16 03:02:30;;;;;;;5.65;2.75;;;;;13.30;100309.00;;;;10387811;28;20809;-79
2024/02/16 03:07:32;;;;;;;4.88;2.70;;;;;13.30;100305.00;;;;10399546;28;20249;-79
2024/02/16 03:12:33;;;;;;;3.33;2.40;;;;;13.40;100303.00;;;;10396219;28;20225;-78
2024/02/16 03:17:34;;;;;;;4.43;2.70;;;;;13.40;100303.00;;;;10394661;28;20275;-79
2024/02/16 03:22:36;;;;;;;7.22;2.63;;;;;13.40;100291.00;;;;10416148;28;20226;-79
2024/02/16 03:27:37;;;;;;;5.85;2.45;;;;;13.40;100297.00;;;;10422552;28;20212;-79
2024/02/16 03:32:38;;;;;;;4.13;2.22;;;;;13.40;100298.00;;;;10412655;28;20284;-79
2024/02/16 03:37:39;;;;;;;3.55;2.63;;;;;13.40;100294.00;;;;10400289;28;20928;-79
2024/02/16 03:42:40;;;;;;;7.32;2.80;;;;;13.40;100284.00;;;;10418200;28;20278;-79
2024/02/16 03:47:42;;;;;;;5.70;2.28;;;;;13.40;100292.00;;;;10408348;28;20305;-79
2024/02/16 03:52:43;;;;;;;4.20;2.45;;;;;13.40;100304.00;;;;10418568;28;20222;-78
2024/02/16 03:57:44;;;;;;;3.08;2.33;;;;;13.40;100306.00;;;;10394173;28;20218;-79
2024/02/16 04:02:45;;;;;;;4.35;2.55;;;;;13.40;100309.00;;;;10412613;28;20313;-79
2024/02/16 04:07:47;;;;;;;6.10;3.08;;;;;13.40;100309.00;;;;10408636;28;20275;-79
2024/02/16 04:12:48;;;;;;;6.28;2.55;;;;;13.40;100317.00;;;;10410596;28;20221;-79
2024/02/16 04:17:52;;;;;;;3.63;3.05;;;;;13.30;100308.00;;;;10411306;28;20222;-79
2024/02/16 04:22:53;;;;;;;7.07;3.33;;;;;13.30;100303.00;;;;10380110;28;20306;-79
2024/02/16 04:27:54;;;;;;;5.10;2.55;;;;;13.30;100305.00;;;;10388081;28;20305;-79
2024/02/16 04:32:55;;;;;;;6.47;2.40;;;;;13.40;100310.00;;;;10378779;28;20260;-78
2024/02/16 04:37:57;;;;;;;5.82;2.88;;;;;13.30;100337.00;;;;10414871;28;20225;-78
2024/02/16 04:42:58;;;;;;;5.05;2.90;;;;;13.20;100338.00;;;;10399240;28;20271;-77
2024/02/16 04:48:06;;;;;;;5.60;2.47;;;;;13.20;100341.00;;;;10408812;28;20317;-78
2024/02/16 04:53:08;;;;;;;5.32;3.05;;;;;13.10;100363.00;;;;10410930;28;20218;-78
2024/02/16 04:58:09;;;;;;;6.65;3.05;;;;;13.00;100373.00;;;;10413263;28;20311;-78
2024/02/16 05:03:10;;;;;;;6.45;3.20;;;;;13.10;100381.00;;;;10422126;28;20218;-77
2024/02/16 05:08:12;;;;;;;4.03;2.50;;;;;13.20;100368.00;;;;10411340;28;20229;-77
2024/02/16 05:13:14;;;;;;;3.92;2.47;;;;;13.20;100360.00;;;;10424529;28;20305;-77
2024/02/16 05:18:17;;;;;;;3.20;2.85;;;;;13.20;100368.00;;;;10393121;28;20223;-77
2024/02/16 05:23:18;;;;;;;4.60;2.65;;;;;13.20;100367.00;;;;10399223;28;20271;-78
2024/02/16 05:28:20;;;;;;;8.75;3.38;;;;;13.30;100357.00;;;;10392884;28;20230;-78
2024/02/16 05:33:21;;;;;;;5.85;2.85;;;;;13.40;100360.00;;;;10407310;28;20229;-77
2024/02/16 05:38:32;;;;;;;6.70;3.38;;;;;13.50;100367.00;;;;10397176;28;20217;-79
2024/02/16 05:43:34;;;;;;;3.78;2.17;;;;;13.50;100371.00;;;;10401842;28;20256;-80
2024/02/16 05:48:39;;;;;;;7.88;2.63;;;;;13.60;100383.00;;;;10412345;28;20226;-79
2024/02/16 05:53:41;;;;;;;6.75;2.92;;;;;13.70;100384.00;;;;10411782;28;20249;-79
2024/02/16 05:58:42;;;;;;;7.72;3.03;;;;;13.70;100385.00;;;;10414976;28;20325;-79
2024/02/16 06:03:43;;;;;;;3.83;2.72;;;;;13.70;100389.00;;;;10397859;28;20238;-79
2024/02/16 06:08:44;;;;;;;9.55;2.78;;;;;13.70;100400.00;;;;10392136;28;20812;-82
2024/02/16 06:13:45;;;;;;;7.00;2.80;;;;;13.70;100407.00;;;;10396734;28;20252;-78
2024/02/16 06:18:46;;;;;;;7.57;3.05;;;;;13.70;100414.00;;;;10400690;28;20638;-78
2024/02/16 06:23:47;;;;;;;14.63;3.58;;;;;13.80;100414.00;;;;10395700;28;20230;-78
2024/02/16 06:28:49;;;;;;;6.35;3.08;;;;;13.70;100427.00;;;;10408056;28;20228;-81
2024/02/16 06:33:50;;;;;;;7.30;3.42;;;;;13.60;100456.00;;;;10416379;28;20238;-79
2024/02/16 06:38:51;;;;;;;20.20;4.22;;;;;13.60;100455.00;;;;10403620;28;20244;-79
2024/02/16 06:43:52;;;;;;;7.88;3.65;;;;;13.50;100455.00;;;;10410463;28;20688;-79
2024/02/16 06:48:56;;;;;;;5.88;3.15;;;;;13.60;100470.00;;;;10400478;28;20222;-79
2024/02/16 06:53:57;;;;;;;8.65;3.70;;;;;13.60;100466.00;;;;10412704;28;20229;-79
2024/02/16 06:58:59;;;;;;;7.03;3.87;;;;;13.40;100472.00;;;;10419203;28;20285;-79
2024/02/16 07:04:01;;;;;;;7.65;3.90;;;;;13.30;100470.00;;;;10396176;28;20300;-79
2024/02/16 07:09:02;;;;;;;10.02;4.20;;;;;13.30;100486.00;;;;10409000;28;20226;-79
2024/02/16 07:14:06;;;;;;;12.02;4.53;;;;;13.30;100501.00;;;;10411489;28;20275;-79
2024/02/16 07:19:07;;;;;;;8.35;3.45;;;;;13.40;100499.00;;;;10389382;28;20223;-80
2024/02/16 07:24:08;;;;;;;8.45;3.70;;;;;13.40;100504.00;;;;10405298;28;20726;-79
2024/02/16 07:29:13;;;;;;;9.85;4.70;;;;;13.40;100514.00;;;;10405256;28;20221;-78
2024/02/16 07:34:14;;;;;;;17.92;4.25;;;;;13.50;100518.00;;;;10414045;28;20230;-78
2024/02/16 07:39:15;;;;;;;11.15;4.28;;;;;13.60;100536.00;;;;10398032;28;20279;-80
2024/02/16 07:44:16;;;;;;;11.32;4.35;;;;;13.70;100540.00;;;;10407847;28;20776;-79
2024/02/16 07:49:17;;;;;;;10.95;4.70;;;;;13.90;100556.00;;;;10398317;28;20214;-79
2024/02/16 07:54:18;;;;;;;10.95;4.82;;;;;14.00;100558.00;;;;10406790;28;20232;-79
2024/02/16 07:59:20;;;;;;;9.68;4.50;;;;;14.00;100563.00;;;;10398448;28;20241;-87
2024/02/16 08:04:21;;;;;;;11.32;4.00;;;;;14.10;100573.00;;;;10416152;28;20666;-86
2024/02/16 08:09:22;;;;;;;7.97;4.05;;;;;14.10;100574.00;;;;10407212;28;20218;-87
2024/02/16 08:14:23;;;;;;;10.02;4.72;;;;;14.10;100588.00;;;;10421071;28;20309;-86
2024/02/16 08:19:32;;;;;;;11.75;5.50;;;;;14.20;100580.00;;;;10426276;28;20293;-85
2024/02/16 08:24:34;;;;;;;7.43;4.45;;;;;14.30;100594.00;;;;10390029;28;20224;-86
2024/02/16 08:29:35;;;;;;;10.38;4.60;;;;;14.30;100607.00;;;;10415610;28;20691;-86
2024/02/16 08:34:38;;;;;;;12.02;4.70;;;;;14.20;100613.00;;;;10395889;28;20235;-86
2024/02/16 08:39:39;;;;;;;11.43;5.15;;;;;13.90;100626.00;;;;10417734;28;20222;-85
2024/02/16 08:44:42;;;;;;;11.48;5.15;;;;;13.50;100631.00;;;;10405954;28;20222;-83
2024/02/16 08:49:43;;;;;;;10.80;5.45;;;;;13.30;100642.00;;;;10417485;28;20218;-83
2024/02/16 08:54:45;;;;;;;17.00;5.20;;;;;13.30;100651.00;;;;10435201;28;20294;-84
2024/02/16 08:59:46;;;;;;;9.55;5.85;;;;;13.40;100651.00;;;;10432382;28;20233;-85
2024/02/16 09:04:47;;;;;;;13.38;5.55;;;;;13.50;100643.00;;;;10423158;28;20236;-76
2024/02/16 09:09:48;;;;;;;12.23;5.78;;;;;13.80;100652.00;;;;10412591;28;20226;-77
2024/02/16 09:14:50;;;;;;;8.63;5.32;;;;;14.10;100655.00;;;;10382855;28;20287;-78
2024/02/16 09:19:51;;;;;;;12.10;5.72;;;;;14.20;100663.00;;;;10399997;28;20292;-77
2024/02/16 09:24:54;;;;;;;9.30;5.03;;;;;14.00;100671.00;;;;10412361;28;20246;-77
2024/02/16 09:29:55;;;;;;;11.63;5.80;;;;;13.80;100678.00;;;;10405205;28;20731;-77
2024/02/16 09:34:56;;;;;;;15.52;6.85;;;;;13.70;100706.00;;;;10398462;28;20256;-77
2024/02/16 09:39:58;;;;;;;15.43;6.38;;;;;13.40;100700.00;;;;10423567;28;20587;-77
2024/02/16 09:44:59;;;;;;;19.95;6.35;;;;;13.30;100720.00;;;;10397812;28;20222;-77
2024/02/16 09:50:02;;;;;;;19.67;6.70;;;;;13.30;100722.00;;;;10403002;28;20229;-77
2024/02/16 09:55:07;;;;;;;13.25;6.28;;;;;13.30;100733.00;;;;10391508;28;20233;-77
2024/02/16 10:00:09;;;;;;;18.75;7.50;;;;;13.40;100739.00;;;;10414376;28;20218;-77
2024/02/16 10:05:15;;;;;;;15.45;6.63;;;;;13.50;100740.00;;;;10410338;28;20278;-78
2024/02/16 10:10:25;;;;;;;14.15;6.82;;;;;13.60;100738.00;;;;10431536;28;21010;-76
2024/02/16 10:15:26;;;;;;;14.00;7.13;;;;;13.70;100747.00;;;;10403411;28;20272;-87
2024/02/16 10:20:29;;;;;;;11.70;6.30;;;;;14.00;100765.00;;;;10424591;28;20221;-87
2024/02/16 10:25:30;;;;;;;14.48;6.32;;;;;14.10;100775.00;;;;10403431;28;20685;-86
2024/02/16 10:30:38;;;;;;;11.65;6.40;;;;;14.50;100766.00;;;;10400253;28;20257;-89
2024/02/16 10:35:40;;;;;;;9.10;5.82;;;;;14.50;100788.00;;;;10426275;28;20227;-87
2024/02/16 10:40:42;;;;;;;12.57;6.68;;;;;14.30;100798.00;;;;10422777;28;20244;-90
2024/02/16 10:45:45;;;;;;;13.93;6.55;;;;;14.10;100815.00;;;;10413592;28;20276;-88
2024/02/16 10:50:50;;;;;;;14.15;7.07;;;;;13.80;100827.00;;;;10405941;28;20230;-86
2024/02/16 10:55:52;;;;;;;13.82;7.20;;;;;13.70;100825.00;;;;10398836;28;20257;-89
2024/02/16 11:00:55;;;;;;;13.02;7.35;;;;;13.60;100834.00;;;;10399620;28;20305;-88
2024/02/16 11:05:58;;;;;;;19.45;7.63;;;;;13.50;100838.00;;;;10400807;28;20219;-89
2024/02/16 11:11:03;;;;;;;13.65;8.45;;;;;13.60;100844.00;;;;10394332;28;20930;-89
2024/02/16 11:16:09;;;;;;;17.48;7.90;;;;;13.60;100849.00;;;;10403833;28;20249;-85
2024/02/16 11:21:16;;;;;;;17.15;8.20;;;;;13.50;100857.00;;;;10392695;28;20293;-88
2024/02/16 11:26:18;;;;;;;16.65;8.32;;;;;13.40;100861.00;;;;10410798;28;20280;-77
2024/02/16 11:31:20;;;;;;;14.80;9.25;;;;;13.40;100867.00;;;;10376570;28;20301;-79
2024/02/16 11:36:24;;;;;;;16.02;7.97;;;;;13.30;100870.00;;;;10344112;28;21012;-79
2024/02/16 11:41:25;;;;;;;15.50;7.57;;;;;13.20;100876.00;;;;10369683;28;20230;-77
2024/02/16 11:46:26;;;;;;;13.00;8.32;;;;;13.10;100887.00;;;;10390952;28;20223;-77
2024/02/16 11:51:27;;;;;;;17.35;8.45;;;;;13.00;100889.00;;;;10412369;28;20218;-77
2024/02/16 11:56:29;;;;;;;15.63;9.40;;;;;13.10;100883.00;;;;10391812;28;20225;-78
2024/02/16 12:01:34;;;;;;;13.13;8.45;;;;;13.30;100883.00;;;;10402458;28;20218;-78
2024/02/16 12:06:35;;;;;;;11.00;8.60;;;;;13.30;100902.00;;;;10420795;28;20588;-80
2024/02/16 12:11:36;;;;;;;11.90;7.32;;;;;13.20;100909.00;;;;10416073;28;20225;-80
2024/02/16 12:16:38;;;;;;;12.77;7.10;;;;;13.10;100918.00;;;;10421003;28;20230;-77
2024/02/16 12:21:39;;;;;;;8.02;6.63;;;;;13.00;100925.00;;;;10411276;28;20265;-78
2024/02/16 12:26:41;;;;;;;7.63;6.82;;;;;13.00;100935.00;;;;10380800;28;20223;-78
2024/02/16 12:31:44;;;;;;;7.78;6.47;;;;;13.00;100943.00;;;;10371870;28;20284;-78
2024/02/16 12:36:45;;;;;;;7.15;6.00;;;;;13.10;100950.00;;;;10412855;28;20234;-84
2024/02/16 12:41:51;;;;;;;8.20;6.00;;;;;13.10;100963.00;;;;10427672;28;21195;-84
2024/02/16 12:46:52;;;;;;;9.35;6.47;;;;;13.20;100972.00;;;;10412226;28;20778;-85
2024/02/16 12:51:54;;;;;;;6.80;6.03;;;;;13.00;100983.00;;;;10421832;28;20320;-84
2024/02/16 12:56:55;;;;;;;6.75;6.15;;;;;12.80;100983.00;;;;10413987;28;20241;-87
2024/02/16 13:01:56;;;;;;;7.47;6.68;;;;;12.70;100987.00;;;;10405594;28;20214;-85
2024/02/16 13:06:58;;;;;;;8.30;7.28;;;;;12.70;100996.00;;;;10410388;28;20292;-85
2024/02/16 13:11:59;;;;;;;9.27;7.75;;;;;12.90;101012.00;;;;10410931;28;20668;-84
2024/02/16 13:17:01;;;;;;;8.23;7.43;;;;;13.00;101011.00;;;;10399324;28;20237;-83
2024/02/16 13:22:02;;;;;;;87.93;15.63;;;;;12.90;101021.00;;;;10395295;28;20296;-84
2024/02/16 13:27:05;;;;;;;10.23;8.65;;;;;12.90;101029.00;;;;10410924;28;20226;-85
2024/02/16 13:32:06;;;;;;;12.52;9.10;;;;;13.10;101036.00;;;;10396646;28;20217;-83
2024/02/16 13:37:07;;;;;;;11.65;9.52;;;;;13.20;101048.00;;;;10404983;28;20297;-84
2024/02/16 13:42:10;;;;;;;18.83;12.73;;;;;13.30;101061.00;;;;10425100;28;20226;-84
2024/02/16 13:47:11;;;;;;;15.90;12.77;;;;;13.30;101053.00;;;;10387775;28;20221;-87
2024/02/16 13:52:13;;;;;;;16.90;15.20;;;;;13.60;101073.00;;;;10422205;28;20225;-86
2024/02/16 13:57:14;;;;;;;19.90;17.45;;;;;13.70;101074.00;;;;10413422;28;20222;-85
2024/02/16 14:02:15;;;;;;;19.08;16.70;;;;;14.10;101092.00;;;;10403465;28;20209;-86
2024/02/16 14:07:16;;;;;;;20.60;18.40;;;;;14.20;101096.00;;;;10425245;28;20230;-85
2024/02/16 14:12:17;;;;;;;21.27;19.02;;;;;13.90;101114.00;;;;10402309;28;20229;-84
2024/02/16 14:17:19;;;;;;;17.65;15.75;;;;;13.70;101104.00;;;;10419520;28;20233;-85
2024/02/16 14:22:20;;;;;;;21.90;19.00;;;;;13.50;101112.00;;;;10426952;28;20221;-82
2024/02/16 14:27:21;;;;;;;29.80;23.27;;;;;13.40;101114.00;;;;10420539;28;20229;-85
2024/02/16 14:32:23;;;;;;;33.25;26.50;;;;;13.20;101115.00;;;;10419732;28;20221;-85
2024/02/16 14:37:24;;;;;;;30.58;25.90;;;;;13.40;101125.00;;;;10438078;28;20209;-86
2024/02/16 14:42:28;;;;;;;32.92;28.45;;;;;13.40;101145.00;;;;10418954;28;21786;-86
2024/02/16 14:47:29;;;;;;;26.60;23.17;;;;;13.30;101149.00;;;;10430722;28;20225;-85
2024/02/16 14:52:30;;;;;;;28.92;23.67;;;;;13.40;101151.00;;;;10402460;28;20217;-86
2024/02/16 14:57:31;;;;;;;21.55;19.35;;;;;13.40;101160.00;;;;10416546;28;20301;-79
2024/02/16 15:02:32;;;;;;;17.77;15.40;;;;;13.50;101171.00;;;;10384407;28;20214;-81
2024/02/16 15:07:35;;;;;;;16.08;12.70;;;;;13.40;101164.00;;;;10417718;28;20230;-81
2024/02/16 15:12:36;;;;;;;12.25;11.05;;;;;13.50;101178.00;;;;10402327;28;20847;-79
2024/02/16 15:17:37;;;;;;;14.05;11.00;;;;;13.60;101194.00;;;;10415899;28;20218;-80
2024/02/16 15:22:38;;;;;;;10.55;9.45;;;;;13.60;101197.00;;;;10391002;28;20210;-80
2024/02/16 15:27:54;;;;;;;11.10;7.70;;;;;13.60;101204.00;;;;10404177;28;20237;-80
2024/02/16 15:32:55;;;;;;;6.80;6.10;;;;;13.50;101209.00;;;;10406363;28;20210;-79
2024/02/16 15:37:57;;;;;;;9.68;7.20;;;;;13.30;101215.00;;;;10383268;28;20300;-79
2024/02/16 15:43:03;;;;;;;8.00;6.35;;;;;13.20;101220.00;;;;10424672;28;21258;-79
2024/02/16 15:48:05;;;;;;;9.15;6.78;;;;;13.20;101232.00;;;;10399948;28;20236;-80
2024/02/16 15:53:06;;;;;;;6.47;5.88;;;;;13.10;101232.00;;;;10419654;28;20705;-79
2024/02/16 15:58:07;;;;;;;8.98;6.50;;;;;13.00;101240.00;;;;10467689;28;20219;-79
2024/02/16 16:03:09;;;;;;;6.70;6.10;;;;;12.90;101243.00;;;;10406382;28;20271;-79
2024/02/16 16:08:10;;;;;;;8.18;5.63;;;;;12.90;101253.00;;;;10410603;28;20732;-80
2024/02/16 16:13:12;;;;;;;6.57;5.50;;;;;12.90;101261.00;;;;10414907;28;20685;-78
2024/02/16 16:18:17;;;;;;;4.97;4.28;;;;;12.80;101267.00;;;;10408440;28;20227;-79
2024/02/16 16:23:18;;;;;;;5.57;4.38;;;;;12.80;101274.00;;;;10405158;28;20221;-82
2024/02/16 16:28:19;;;;;;;5.70;4.55;;;;;12.70;101280.00;;;;10421181;28;20301;-80
2024/02/16 16:33:20;;;;;;;5.78;4.75;;;;;12.60;101289.00;;;;10406836;28;20834;-79
2024/02/16 16:38:21;;;;;;;7.70;5.22;;;;;12.60;101289.00;;;;10433542;28;20229;-78
2024/02/16 16:43:23;;;;;;;6.97;5.18;;;;;12.50;101291.00;;;;10420874;28;20221;-78
2024/02/16 16:48:24;;;;;;;7.15;5.57;;;;;12.40;101312.00;;;;10400191;28;20222;-79
2024/02/16 16:53:25;;;;;;;7.93;5.80;;;;;12.30;101318.00;;;;10416583;28;20271;-80
2024/02/16 16:58:27;;;;;;;6.78;6.13;;;;;12.30;101325.00;;;;10416815;28;20225;-80
2024/02/16 17:03:28;;;;;;;7.93;6.20;;;;;12.30;101341.00;;;;10412450;28;20778;-81
2024/02/16 17:08:29;;;;;;;8.80;6.18;;;;;12.20;101351.00;;;;10420071;28;20249;-79
2024/02/16 17:13:30;;;;;;;8.23;6.70;;;;;12.20;101366.00;;;;10419174;28;20233;-79
2024/02/16 17:18:35;;;;;;;7.63;6.57;;;;;12.10;101376.00;;;;10394192;28;20301;-76
2024/02/16 17:23:36;;;;;;;8.32;6.15;;;;;12.10;101382.00;;;;10428010;28;20248;-77
2024/02/16 17:28:38;;;;;;;9.95;6.20;;;;;12.00;101398.00;;;;10412224;28;20249;-78
2024/02/16 17:33:39;;;;;;;9.77;7.50;;;;;12.00;101402.00;;;;10431540;28;20234;-77
2024/02/16 17:38:40;;;;;;;9.38;6.50;;;;;11.90;101419.00;;;;10421654;28;20230;-76
2024/02/16 17:43:44;;;;;;;7.57;5.90;;;;;11.90;101424.00;;;;10407141;28;20226;-77
2024/02/16 17:48:45;;;;;;;8.83;6.60;;;;;11.90;101426.00;;;;10418006;28;20297;-76
2024/02/16 17:53:47;;;;;;;8.23;5.90;;;;;11.70;101435.00;;;;10428135;28;20826;-78
2024/02/16 17:58:48;;;;;;;9.33;6.90;;;;;11.50;101433.00;;;;10416130;28;20252;-76
2024/02/16 18:03:49;;;;;;;10.77;7.07;;;;;11.40;101451.00;;;;10397953;28;20950;-76
2024/02/16 18:08:50;;;;;;;10.87;7.60;;;;;11.40;101455.00;;;;10407218;28;20235;-76
2024/02/16 18:13:51;;;;;;;8.23;7.00;;;;;11.50;101460.00;;;;10417582;28;20950;-76
2024/02/16 18:18:53;;;;;;;12.43;7.80;;;;;11.50;101475.00;;;;10424991;28;20236;-77
2024/02/16 18:23:54;;;;;;;10.63;7.60;;;;;11.60;101477.00;;;;10417735;28;20241;-77
2024/02/16 18:28:56;;;;;;;14.47;8.30;;;;;11.60;101480.00;;;;10418859;28;20222;-78
2024/02/16 18:33:57;;;;;;;13.80;9.77;;;;;11.70;101511.00;;;;10434374;28;20238;-76
2024/02/16 18:38:59;;;;;;;12.20;9.90;;;;;11.50;101522.00;;;;10413158;28;20226;-79
2024/02/16 18:44:00;;;;;;;19.20;11.87;;;;;11.40;101524.00;;;;10410651;28;20214;-76
2024/02/16 18:49:01;;;;;;;18.33;12.80;;;;;11.30;101527.00;;;;10426388;28;20213;-77
2024/02/16 18:54:05;;;;;;;18.97;13.90;;;;;11.30;101542.00;;;;10417652;28;20616;-77
2024/02/16 18:59:07;;;;;;;19.07;15.23;;;;;11.30;101550.00;;;;10410160;28;20588;-77
2024/02/16 19:04:09;;;;;;;15.77;13.00;;;;;11.20;101546.00;;;;10392562;28;20218;-76
2024/02/16 19:09:10;;;;;;;15.67;11.03;;;;;11.20;101568.00;;;;10411837;28;20222;-75
2024/02/16 19:14:11;;;;;;;9.70;6.97;;;;;11.30;101573.00;;;;10409079;28;20903;-78
2024/02/16 19:19:13;;;;;;;15.97;9.50;;;;;11.30;101586.00;;;;10430690;28;20308;-76
2024/02/16 19:24:16;;;;;;;12.20;10.00;;;;;11.20;101597.00;;;;10407184;28;20306;-77
2024/02/16 19:29:23;;;;;;;15.83;9.63;;;;;11.20;101605.00;;;;10392907;28;20229;-77
2024/02/16 19:34:24;;;;;;;14.90;9.53;;;;;11.10;101620.00;;;;10417669;28;20301;-76
2024/02/16 19:39:26;;;;;;;12.83;9.23;;;;;11.10;101623.00;;;;10391937;28;20284;-77
2024/02/16 19:44:29;;;;;;;14.13;9.50;;;;;11.00;101641.00;;;;10417110;28;20221;-77
2024/02/16 19:49:31;;;;;;;13.50;7.83;;;;;10.90;101632.00;;;;10399253;28;20225;-80
2024/02/16 19:54:32;;;;;;;11.83;7.80;;;;;10.70;101644.00;;;;10434936;28;20229;-79
2024/02/16 19:59:33;;;;;;;11.87;7.67;;;;;10.50;101652.00;;;;10392577;28;20214;-81
2024/02/16 20:04:34;;;;;;;12.97;7.30;;;;;10.40;101653.00;;;;10391846;28;20219;-79
2024/02/16 20:09:36;;;;;;;14.57;7.53;;;;;10.30;101671.00;;;;10429705;28;20234;-80
2024/02/16 20:14:37;;;;;;;16.50;7.43;;;;;10.20;101676.00;;;;10431036;28;20226;-79
2024/02/16 20:19:39;;;;;;;13.57;7.53;;;;;10.10;101682.00;;;;10393541;28;20259;-79
2024/02/16 20:24:40;;;;;;;11.43;7.90;;;;;9.90;101693.00;;;;10414225;28;20229;-78
2024/02/16 20:29:41;;;;;;;16.43;8.60;;;;;9.80;101702.00;;;;10405733;28;20305;-79
2024/02/16 20:34:43;;;;;;;15.57;8.97;;;;;9.70;101715.00;;;;10409878;28;20226;-81
2024/02/16 20:39:45;;;;;;;15.67;10.23;;;;;9.70;101718.00;;;;10420071;28;20249;-78
2024/02/16 20:44:46;;;;;;;18.93;8.70;;;;;9.60;101722.00;;;;10412105;28;20221;-78
2024/02/16 20:49:47;;;;;;;17.37;7.70;;;;;9.60;101734.00;;;;10386804;28;21045;-78
2024/02/16 20:54:48;;;;;;;14.80;7.07;;;;;9.60;101733.00;;;;10415185;28;21152;-79
2024/02/16 20:59:50;;;;;;;12.67;6.10;;;;;9.50;101744.00;;;;10405900;28;20275;-78
2024/02/16 21:04:51;;;;;;;12.93;6.43;;;;;9.50;101755.00;;;;10414871;28;20909;-79
2024/02/16 21:09:53;;;;;;;18.30;5.90;;;;;9.40;101759.00;;;;10415758;28;20214;-78
2024/02/16 21:14:54;;;;;;;12.07;5.43;;;;;9.40;101776.00;;;;10417023;28;20249;-77
2024/02/16 21:19:55;;;;;;;11.67;5.17;;;;;9.30;101773.00;;;;10405611;28;20218;-79
2024/02/16 21:24:56;;;;;;;28.53;7.23;;;;;9.30;101788.00;;;;10398195;28;20228;-78
2024/02/16 21:29:59;;;;;;;19.23;5.60;;;;;9.20;101788.00;;;;10395427;28;20569;-77
2024/02/16 21:35:01;;;;;;;13.73;5.77;;;;;9.20;101789.00;;;;10394539;28;20241;-79
2024/02/16 21:40:03;;;;;;;18.77;5.90;;;;;9.20;101791.00;;;;10413945;28;20222;-79
2024/02/16 21:45:06;;;;;;;18.03;5.97;;;;;9.20;101799.00;;;;10423876;28;20257;-79
2024/02/16 21:50:10;;;;;;;14.93;5.23;;;;;9.20;101801.00;;;;10414664;28;20626;-79
2024/02/16 21:55:11;;;;;;;17.20;6.40;;;;;9.30;101806.00;;;;10411338;28;20229;-78
2024/02/16 22:00:13;;;;;;;16.23;5.40;;;;;9.30;101814.00;;;;10398016;28;20317;-78
2024/02/16 22:05:14;;;;;;;18.03;6.80;;;;;9.30;101818.00;;;;10411416;28;20218;-78
2024/02/16 22:10:15;;;;;;;10.40;5.67;;;;;9.40;101823.00;;;;10422833;28;20220;-78
2024/02/16 22:15:17;;;;;;;15.53;6.20;;;;;9.40;101821.00;;;;10427892;28;20224;-78
2024/02/16 22:20:18;;;;;;;19.23;6.40;;;;;9.40;101837.00;;;;10389661;28;20248;-78
2024/02/16 22:25:19;;;;;;;17.17;5.27;;;;;9.40;101844.00;;;;10403795;28;20316;-78
2024/02/16 22:30:20;;;;;;;17.27;5.73;;;;;9.40;101848.00;;;;10400811;28;20301;-78
2024/02/16 22:35:21;;;;;;;17.93;5.87;;;;;9.40;101851.00;;;;10420268;28;20226;-78
2024/02/16 22:40:24;;;;;;;18.07;6.10;;;;;9.40;101859.00;;;;10394484;28;20740;-78
2024/02/16 22:45:25;;;;;;;13.17;6.00;;;;;9.40;101870.00;;;;10399506;28;20247;-78
2024/02/16 22:50:26;;;;;;;12.53;6.07;;;;;9.30;101871.00;;;;10437248;28;20985;-78
2024/02/16 22:55:27;;;;;;;20.03;6.37;;;;;9.30;101876.00;;;;10403407;28;20304;-78
2024/02/16 23:00:32;;;;;;;19.10;6.27;;;;;9.30;101883.00;;;;10428689;28;20310;-78
2024/02/16 23:05:34;;;;;;;14.43;6.03;;;;;9.30;101887.00;;;;10411657;28;20225;-79
2024/02/16 23:10:37;;;;;;;15.87;6.27;;;;;9.30;101888.00;;;;10420488;28;20218;-78
2024/02/16 23:15:38;;;;;;;14.17;5.83;;;;;9.20;101893.00;;;;10413753;28;20218;-84
2024/02/16 23:20:39;;;;;;;14.93;6.23;;;;;9.20;101913.00;;;;10434725;28;20229;-85
2024/02/16 23:25:42;;;;;;;16.77;5.87;;;;;9.20;101920.00;;;;10421236;28;20281;-85
2024/02/16 23:30:44;;;;;;;14.77;6.57;;;;;9.20;101920.00;;;;10434579;28;20253;-82
2024/02/16 23:35:45;;;;;;;20.67;6.50;;;;;9.10;101917.00;;;;10416701;28;20237;-84
2024/02/16 23:40:46;;;;;;;13.67;6.03;;;;;9.00;101937.00;;;;10397643;28;20310;-85
2024/02/16 23:45:48;;;;;;;14.10;5.63;;;;;9.00;101941.00;;;;10420736;28;20811;-84
2024/02/16 23:50:49;;;;;;;13.67;6.83;;;;;8.90;101942.00;;;;10420206;28;20281;-85
2024/02/16 23:55:53;;;;;;;13.57;6.20;;;;;8.90;101952.00;;;;10392312;28;20704;-85
